sensor_id;sensor_type;location;lat;lon;timestamp;P1;durP1;ratioP1;P2;durP2;ratioP2
16127;SDS011;8168;49.036;7.690;2023-03-03T00:00:22;22.23;;;10.90;;
16127;SDS011;8168;49.036;7.690;2023-03-03T00:02:52;23.53;;;11.00;;
16127;SDS011;8168;49.036;7.690;2023-03-03T00:05:23;27.57;;;11.23;;
16127;SDS011;8168;49.036;7.690;2023-03-03T00:07:54;19.73;;;10.60;;
16127;SDS011;8168;49.036;7.690;2023-03-03T00:10:26;17.77;;;10.73;;
16127;SDS011;8168;49.036;7.690;2023-03-03T00:12:57;18.33;;;10.07;;
16127;SDS011;8168;49.036;7.690;2023-03-03T00:15:29;17.43;;;10.03;;
16127;SDS011;8168;49.036;7.690;2023-03-03T00:18:00;17.57;;;9.63;;
16127;SDS011;8168;49.036;7.690;2023-03-03T00:20:51;21.57;;;10.90;;
16127;SDS011;8168;49.036;7.690;2023-03-03T00:23:30;18.90;;;11.00;;
16127;SDS011;8168;49.036;7.690;2023-03-03T00:26:15;23.93;;;11.53;;
16127;SDS011;8168;49.036;7.690;2023-03-03T00:28:48;21.40;;;10.67;;
16127;SDS011;8168;49.036;7.690;2023-03-03T00:31:22;22.23;;;10.87;;
16127;SDS011;8168;49.036;7.690;2023-03-03T00:34:42;20.37;;;10.67;;
16127;SDS011;8168;49.036;7.690;2023-03-03T00:36:55;22.20;;;10.90;;
16127;SDS011;8168;49.036;7.690;2023-03-03T00:41:59;23.83;;;11.43;;
16127;SDS011;8168;49.036;7.690;2023-03-03T00:44:37;20.57;;;9.60;;
16127;SDS011;8168;49.036;7.690;2023-03-03T00:47:18;21.07;;;10.53;;
16127;SDS011;8168;49.036;7.690;2023-03-03T00:52:36;17.97;;;9.47;;
16127;SDS011;8168;49.036;7.690;2023-03-03T00:55:09;23.23;;;10.93;;
16127;SDS011;8168;49.036;7.690;2023-03-03T00:57:41;20.23;;;10.30;;
16127;SDS011;8168;49.036;7.690;2023-03-03T01:00:12;24.33;;;10.80;;
16127;SDS011;8168;49.036;7.690;2023-03-03T01:02:43;30.03;;;14.53;;
16127;SDS011;8168;49.036;7.690;2023-03-03T01:05:15;31.27;;;14.83;;
16127;SDS011;8168;49.036;7.690;2023-03-03T01:07:47;25.83;;;12.97;;
16127;SDS011;8168;49.036;7.690;2023-03-03T01:10:18;26.17;;;12.20;;
16127;SDS011;8168;49.036;7.690;2023-03-03T01:12:49;24.40;;;12.17;;
16127;SDS011;8168;49.036;7.690;2023-03-03T01:15:20;22.73;;;10.77;;
16127;SDS011;8168;49.036;7.690;2023-03-03T01:17:51;28.63;;;11.90;;
16127;SDS011;8168;49.036;7.690;2023-03-03T01:20:22;23.03;;;10.47;;
16127;SDS011;8168;49.036;7.690;2023-03-03T01:22:53;22.97;;;10.77;;
16127;SDS011;8168;49.036;7.690;2023-03-03T01:25:24;17.83;;;10.13;;
16127;SDS011;8168;49.036;7.690;2023-03-03T01:27:55;23.83;;;11.33;;
16127;SDS011;8168;49.036;7.690;2023-03-03T01:30:26;23.07;;;10.73;;
16127;SDS011;8168;49.036;7.690;2023-03-03T01:32:57;21.33;;;9.90;;
16127;SDS011;8168;49.036;7.690;2023-03-03T01:35:28;25.63;;;11.27;;
16127;SDS011;8168;49.036;7.690;2023-03-03T01:37:59;20.77;;;10.60;;
16127;SDS011;8168;49.036;7.690;2023-03-03T01:40:30;21.03;;;10.50;;
16127;SDS011;8168;49.036;7.690;2023-03-03T01:43:01;19.53;;;9.67;;
16127;SDS011;8168;49.036;7.690;2023-03-03T01:48:36;20.73;;;9.90;;
16127;SDS011;8168;49.036;7.690;2023-03-03T01:51:16;24.67;;;10.77;;
16127;SDS011;8168;49.036;7.690;2023-03-03T01:54:35;21.23;;;9.07;;
16127;SDS011;8168;49.036;7.690;2023-03-03T01:56:50;19.00;;;9.67;;
16127;SDS011;8168;49.036;7.690;2023-03-03T01:59:30;19.93;;;9.73;;
16127;SDS011;8168;49.036;7.690;2023-03-03T02:02:04;23.17;;;11.27;;
16127;SDS011;8168;49.036;7.690;2023-03-03T02:04:35;19.50;;;9.30;;
16127;SDS011;8168;49.036;7.690;2023-03-03T02:07:07;16.60;;;8.93;;
16127;SDS011;8168;49.036;7.690;2023-03-03T02:09:45;19.37;;;9.77;;
16127;SDS011;8168;49.036;7.690;2023-03-03T02:12:18;22.83;;;10.67;;
16127;SDS011;8168;49.036;7.690;2023-03-03T02:14:51;19.33;;;10.07;;
16127;SDS011;8168;49.036;7.690;2023-03-03T02:17:22;19.90;;;9.73;;
16127;SDS011;8168;49.036;7.690;2023-03-03T02:22:33;21.47;;;9.83;;
16127;SDS011;8168;49.036;7.690;2023-03-03T02:25:10;21.20;;;9.83;;
16127;SDS011;8168;49.036;7.690;2023-03-03T02:27:47;17.90;;;9.00;;
16127;SDS011;8168;49.036;7.690;2023-03-03T02:30:19;18.73;;;9.47;;
16127;SDS011;8168;49.036;7.690;2023-03-03T02:32:51;17.20;;;9.33;;
16127;SDS011;8168;49.036;7.690;2023-03-03T02:35:35;23.77;;;10.27;;
16127;SDS011;8168;49.036;7.690;2023-03-03T02:38:18;20.37;;;9.23;;
16127;SDS011;8168;49.036;7.690;2023-03-03T02:44:06;22.30;;;9.90;;
16127;SDS011;8168;49.036;7.690;2023-03-03T02:46:46;21.40;;;10.03;;
16127;SDS011;8168;49.036;7.690;2023-03-03T02:49:19;22.00;;;9.43;;
16127;SDS011;8168;49.036;7.690;2023-03-03T02:51:52;22.23;;;10.57;;
16127;SDS011;8168;49.036;7.690;2023-03-03T02:54:23;23.70;;;9.70;;
16127;SDS011;8168;49.036;7.690;2023-03-03T02:56:56;21.97;;;9.93;;
16127;SDS011;8168;49.036;7.690;2023-03-03T02:59:27;21.43;;;10.27;;
16127;SDS011;8168;49.036;7.690;2023-03-03T03:01:58;19.63;;;9.60;;
16127;SDS011;8168;49.036;7.690;2023-03-03T03:04:29;25.50;;;11.87;;
16127;SDS011;8168;49.036;7.690;2023-03-03T03:07:00;19.90;;;9.90;;
16127;SDS011;8168;49.036;7.690;2023-03-03T03:09:32;20.93;;;10.03;;
16127;SDS011;8168;49.036;7.690;2023-03-03T03:12:03;16.83;;;8.40;;
16127;SDS011;8168;49.036;7.690;2023-03-03T03:14:34;17.73;;;8.93;;
16127;SDS011;8168;49.036;7.690;2023-03-03T03:17:05;17.43;;;8.97;;
16127;SDS011;8168;49.036;7.690;2023-03-03T03:19:36;21.03;;;10.10;;
16127;SDS011;8168;49.036;7.690;2023-03-03T03:22:07;19.30;;;9.67;;
16127;SDS011;8168;49.036;7.690;2023-03-03T03:24:38;21.80;;;9.40;;
16127;SDS011;8168;49.036;7.690;2023-03-03T03:27:09;18.93;;;9.50;;
16127;SDS011;8168;49.036;7.690;2023-03-03T03:29:40;18.93;;;9.30;;
16127;SDS011;8168;49.036;7.690;2023-03-03T03:32:11;23.47;;;9.60;;
16127;SDS011;8168;49.036;7.690;2023-03-03T03:34:42;18.90;;;8.93;;
16127;SDS011;8168;49.036;7.690;2023-03-03T03:37:13;20.97;;;9.30;;
16127;SDS011;8168;49.036;7.690;2023-03-03T03:39:44;19.03;;;9.07;;
16127;SDS011;8168;49.036;7.690;2023-03-03T03:42:15;24.80;;;10.10;;
16127;SDS011;8168;49.036;7.690;2023-03-03T03:44:46;22.93;;;10.47;;
16127;SDS011;8168;49.036;7.690;2023-03-03T03:47:18;22.03;;;9.57;;
16127;SDS011;8168;49.036;7.690;2023-03-03T03:49:48;18.40;;;9.00;;
16127;SDS011;8168;49.036;7.690;2023-03-03T03:52:19;23.67;;;11.87;;
16127;SDS011;8168;49.036;7.690;2023-03-03T03:54:50;21.07;;;10.17;;
16127;SDS011;8168;49.036;7.690;2023-03-03T03:57:21;24.93;;;10.30;;
16127;SDS011;8168;49.036;7.690;2023-03-03T03:59:52;17.97;;;9.47;;
16127;SDS011;8168;49.036;7.690;2023-03-03T04:02:23;22.80;;;10.70;;
16127;SDS011;8168;49.036;7.690;2023-03-03T04:04:54;16.63;;;9.00;;
16127;SDS011;8168;49.036;7.690;2023-03-03T04:07:25;17.90;;;9.60;;
16127;SDS011;8168;49.036;7.690;2023-03-03T04:09:56;21.57;;;10.03;;
16127;SDS011;8168;49.036;7.690;2023-03-03T04:12:27;17.53;;;9.47;;
16127;SDS011;8168;49.036;7.690;2023-03-03T04:14:58;19.07;;;9.13;;
16127;SDS011;8168;49.036;7.690;2023-03-03T04:17:29;19.80;;;9.60;;
16127;SDS011;8168;49.036;7.690;2023-03-03T04:20:00;21.00;;;9.47;;
16127;SDS011;8168;49.036;7.690;2023-03-03T04:22:32;21.70;;;10.03;;
16127;SDS011;8168;49.036;7.690;2023-03-03T04:25:05;16.60;;;8.97;;
16127;SDS011;8168;49.036;7.690;2023-03-03T04:27:36;21.83;;;10.10;;
16127;SDS011;8168;49.036;7.690;2023-03-03T04:30:07;20.53;;;9.77;;
16127;SDS011;8168;49.036;7.690;2023-03-03T04:32:39;22.17;;;10.13;;
16127;SDS011;8168;49.036;7.690;2023-03-03T04:35:10;24.00;;;10.53;;
16127;SDS011;8168;49.036;7.690;2023-03-03T04:37:41;21.73;;;9.93;;
16127;SDS011;8168;49.036;7.690;2023-03-03T04:40:12;18.47;;;10.17;;
16127;SDS011;8168;49.036;7.690;2023-03-03T04:42:43;22.90;;;10.50;;
16127;SDS011;8168;49.036;7.690;2023-03-03T04:45:14;20.70;;;10.10;;
16127;SDS011;8168;49.036;7.690;2023-03-03T04:47:45;27.63;;;10.67;;
16127;SDS011;8168;49.036;7.690;2023-03-03T04:50:16;19.10;;;10.07;;
16127;SDS011;8168;49.036;7.690;2023-03-03T04:52:47;25.47;;;10.50;;
16127;SDS011;8168;49.036;7.690;2023-03-03T04:55:18;20.93;;;9.97;;
16127;SDS011;8168;49.036;7.690;2023-03-03T04:57:49;22.33;;;10.60;;
16127;SDS011;8168;49.036;7.690;2023-03-03T05:00:20;22.57;;;10.53;;
16127;SDS011;8168;49.036;7.690;2023-03-03T05:02:51;21.43;;;10.47;;
16127;SDS011;8168;49.036;7.690;2023-03-03T05:05:22;20.57;;;10.37;;
16127;SDS011;8168;49.036;7.690;2023-03-03T05:07:53;22.57;;;11.10;;
16127;SDS011;8168;49.036;7.690;2023-03-03T05:10:24;21.87;;;10.60;;
16127;SDS011;8168;49.036;7.690;2023-03-03T05:12:55;26.20;;;10.27;;
16127;SDS011;8168;49.036;7.690;2023-03-03T05:15:26;19.90;;;10.50;;
16127;SDS011;8168;49.036;7.690;2023-03-03T05:17:57;22.93;;;10.03;;
16127;SDS011;8168;49.036;7.690;2023-03-03T05:20:28;22.40;;;9.90;;
16127;SDS011;8168;49.036;7.690;2023-03-03T05:22:59;19.60;;;9.73;;
16127;SDS011;8168;49.036;7.690;2023-03-03T05:25:30;19.43;;;9.20;;
16127;SDS011;8168;49.036;7.690;2023-03-03T05:28:01;20.77;;;10.47;;
16127;SDS011;8168;49.036;7.690;2023-03-03T05:30:33;23.60;;;10.17;;
16127;SDS011;8168;49.036;7.690;2023-03-03T05:33:04;20.90;;;9.73;;
16127;SDS011;8168;49.036;7.690;2023-03-03T05:35:35;24.90;;;11.50;;
16127;SDS011;8168;49.036;7.690;2023-03-03T05:38:06;23.13;;;10.40;;
16127;SDS011;8168;49.036;7.690;2023-03-03T05:40:38;20.07;;;10.40;;
16127;SDS011;8168;49.036;7.690;2023-03-03T05:43:08;23.00;;;10.77;;
16127;SDS011;8168;49.036;7.690;2023-03-03T05:45:39;23.40;;;10.73;;
16127;SDS011;8168;49.036;7.690;2023-03-03T05:48:10;19.63;;;10.27;;
16127;SDS011;8168;49.036;7.690;2023-03-03T05:50:41;18.10;;;9.80;;
16127;SDS011;8168;49.036;7.690;2023-03-03T05:53:12;23.17;;;10.03;;
16127;SDS011;8168;49.036;7.690;2023-03-03T05:55:43;22.10;;;9.97;;
16127;SDS011;8168;49.036;7.690;2023-03-03T05:58:14;20.07;;;9.43;;
16127;SDS011;8168;49.036;7.690;2023-03-03T06:00:45;18.50;;;9.00;;
16127;SDS011;8168;49.036;7.690;2023-03-03T06:03:17;20.80;;;10.20;;
16127;SDS011;8168;49.036;7.690;2023-03-03T06:05:48;20.90;;;9.57;;
16127;SDS011;8168;49.036;7.690;2023-03-03T06:08:19;20.23;;;10.40;;
16127;SDS011;8168;49.036;7.690;2023-03-03T06:10:50;20.87;;;10.23;;
16127;SDS011;8168;49.036;7.690;2023-03-03T06:13:21;20.80;;;11.30;;
16127;SDS011;8168;49.036;7.690;2023-03-03T06:15:52;21.10;;;9.87;;
16127;SDS011;8168;49.036;7.690;2023-03-03T06:18:23;21.03;;;10.20;;
16127;SDS011;8168;49.036;7.690;2023-03-03T06:20:54;21.57;;;10.40;;
16127;SDS011;8168;49.036;7.690;2023-03-03T06:23:24;21.70;;;9.77;;
16127;SDS011;8168;49.036;7.690;2023-03-03T06:25:56;23.93;;;10.07;;
16127;SDS011;8168;49.036;7.690;2023-03-03T06:28:27;24.10;;;11.13;;
16127;SDS011;8168;49.036;7.690;2023-03-03T06:30:58;23.97;;;11.40;;
16127;SDS011;8168;49.036;7.690;2023-03-03T06:33:29;24.33;;;11.50;;
16127;SDS011;8168;49.036;7.690;2023-03-03T06:36:00;20.33;;;10.77;;
16127;SDS011;8168;49.036;7.690;2023-03-03T06:38:31;23.77;;;11.70;;
16127;SDS011;8168;49.036;7.690;2023-03-03T06:41:02;29.53;;;12.07;;
16127;SDS011;8168;49.036;7.690;2023-03-03T06:43:36;21.93;;;11.67;;
16127;SDS011;8168;49.036;7.690;2023-03-03T06:46:07;33.00;;;13.20;;
16127;SDS011;8168;49.036;7.690;2023-03-03T06:48:38;26.50;;;13.10;;
16127;SDS011;8168;49.036;7.690;2023-03-03T06:51:16;29.47;;;14.40;;
16127;SDS011;8168;49.036;7.690;2023-03-03T06:54:14;30.27;;;14.07;;
16127;SDS011;8168;49.036;7.690;2023-03-03T06:56:46;26.53;;;13.37;;
16127;SDS011;8168;49.036;7.690;2023-03-03T06:59:18;22.87;;;12.47;;
16127;SDS011;8168;49.036;7.690;2023-03-03T07:01:50;32.20;;;12.80;;
16127;SDS011;8168;49.036;7.690;2023-03-03T07:04:28;27.87;;;12.27;;
16127;SDS011;8168;49.036;7.690;2023-03-03T07:09:54;28.67;;;12.03;;
16127;SDS011;8168;49.036;7.690;2023-03-03T07:12:27;30.50;;;13.07;;
16127;SDS011;8168;49.036;7.690;2023-03-03T07:15:14;23.53;;;13.17;;
16127;SDS011;8168;49.036;7.690;2023-03-03T07:17:51;23.67;;;11.33;;
16127;SDS011;8168;49.036;7.690;2023-03-03T07:20:31;27.43;;;12.70;;
16127;SDS011;8168;49.036;7.690;2023-03-03T07:23:10;26.93;;;12.07;;
16127;SDS011;8168;49.036;7.690;2023-03-03T07:25:53;25.13;;;11.97;;
16127;SDS011;8168;49.036;7.690;2023-03-03T07:28:26;30.00;;;13.80;;
16127;SDS011;8168;49.036;7.690;2023-03-03T07:30:58;27.67;;;13.43;;
16127;SDS011;8168;49.036;7.690;2023-03-03T07:33:36;25.57;;;12.10;;
16127;SDS011;8168;49.036;7.690;2023-03-03T07:36:56;23.67;;;12.73;;
16127;SDS011;8168;49.036;7.690;2023-03-03T07:42:21;24.73;;;12.67;;
16127;SDS011;8168;49.036;7.690;2023-03-03T07:44:58;24.30;;;11.50;;
16127;SDS011;8168;49.036;7.690;2023-03-03T07:47:30;27.00;;;10.77;;
16127;SDS011;8168;49.036;7.690;2023-03-03T07:50:39;24.80;;;11.80;;
16127;SDS011;8168;49.036;7.690;2023-03-03T07:53:04;25.27;;;12.23;;
16127;SDS011;8168;49.036;7.690;2023-03-03T07:55:44;23.83;;;13.40;;
16127;SDS011;8168;49.036;7.690;2023-03-03T08:03:55;23.13;;;12.00;;
16127;SDS011;8168;49.036;7.690;2023-03-03T08:11:52;25.47;;;13.00;;
16127;SDS011;8168;49.036;7.690;2023-03-03T08:14:28;27.57;;;13.03;;
16127;SDS011;8168;49.036;7.690;2023-03-03T08:17:00;25.60;;;13.47;;
16127;SDS011;8168;49.036;7.690;2023-03-03T08:19:31;22.80;;;12.83;;
16127;SDS011;8168;49.036;7.690;2023-03-03T08:22:22;31.03;;;13.93;;
16127;SDS011;8168;49.036;7.690;2023-03-03T08:25:02;26.33;;;12.43;;
16127;SDS011;8168;49.036;7.690;2023-03-03T08:27:33;26.83;;;13.87;;
16127;SDS011;8168;49.036;7.690;2023-03-03T08:30:04;30.93;;;15.33;;
16127;SDS011;8168;49.036;7.690;2023-03-03T08:32:35;26.23;;;15.13;;
16127;SDS011;8168;49.036;7.690;2023-03-03T08:35:06;29.10;;;14.63;;
16127;SDS011;8168;49.036;7.690;2023-03-03T08:37:37;28.03;;;14.70;;
16127;SDS011;8168;49.036;7.690;2023-03-03T08:40:08;34.40;;;15.30;;
16127;SDS011;8168;49.036;7.690;2023-03-03T08:42:39;31.33;;;15.80;;
16127;SDS011;8168;49.036;7.690;2023-03-03T08:45:10;35.57;;;16.37;;
16127;SDS011;8168;49.036;7.690;2023-03-03T08:47:40;26.87;;;14.43;;
16127;SDS011;8168;49.036;7.690;2023-03-03T08:50:12;25.80;;;13.20;;
16127;SDS011;8168;49.036;7.690;2023-03-03T08:52:44;23.80;;;13.90;;
16127;SDS011;8168;49.036;7.690;2023-03-03T08:55:15;25.10;;;14.13;;
16127;SDS011;8168;49.036;7.690;2023-03-03T08:57:46;25.30;;;13.17;;
16127;SDS011;8168;49.036;7.690;2023-03-03T09:00:17;26.67;;;13.17;;
16127;SDS011;8168;49.036;7.690;2023-03-03T09:02:49;24.30;;;11.50;;
16127;SDS011;8168;49.036;7.690;2023-03-03T09:05:20;27.47;;;13.00;;
16127;SDS011;8168;49.036;7.690;2023-03-03T09:07:52;21.53;;;12.73;;
16127;SDS011;8168;49.036;7.690;2023-03-03T09:10:24;18.80;;;11.20;;
16127;SDS011;8168;49.036;7.690;2023-03-03T09:13:06;23.00;;;12.10;;
16127;SDS011;8168;49.036;7.690;2023-03-03T09:15:41;19.03;;;10.47;;
16127;SDS011;8168;49.036;7.690;2023-03-03T09:18:14;17.30;;;10.33;;
16127;SDS011;8168;49.036;7.690;2023-03-03T09:20:52;22.87;;;12.73;;
16127;SDS011;8168;49.036;7.690;2023-03-03T09:25:58;25.70;;;14.00;;
16127;SDS011;8168;49.036;7.690;2023-03-03T09:28:41;22.03;;;12.27;;
16127;SDS011;8168;49.036;7.690;2023-03-03T09:31:34;23.23;;;12.23;;
16127;SDS011;8168;49.036;7.690;2023-03-03T09:34:13;21.20;;;12.00;;
16127;SDS011;8168;49.036;7.690;2023-03-03T09:36:57;20.00;;;10.93;;
16127;SDS011;8168;49.036;7.690;2023-03-03T09:39:29;17.87;;;10.87;;
16127;SDS011;8168;49.036;7.690;2023-03-03T09:42:07;21.13;;;11.20;;
16127;SDS011;8168;49.036;7.690;2023-03-03T10:16:09;19.17;;;11.20;;
16127;SDS011;8168;49.036;7.690;2023-03-03T10:19:51;20.63;;;11.50;;
16127;SDS011;8168;49.036;7.690;2023-03-03T10:22:16;19.73;;;10.73;;
16127;SDS011;8168;49.036;7.690;2023-03-03T10:34:17;17.97;;;10.27;;
16127;SDS011;8168;49.036;7.690;2023-03-03T10:39:53;15.90;;;9.07;;
16127;SDS011;8168;49.036;7.690;2023-03-03T10:48:49;16.17;;;9.77;;
16127;SDS011;8168;49.036;7.690;2023-03-03T10:57:16;14.00;;;9.00;;
16127;SDS011;8168;49.036;7.690;2023-03-03T11:00:06;15.70;;;9.73;;
16127;SDS011;8168;49.036;7.690;2023-03-03T11:06:24;16.70;;;9.50;;
16127;SDS011;8168;49.036;7.690;2023-03-03T11:11:40;17.10;;;9.63;;
16127;SDS011;8168;49.036;7.690;2023-03-03T11:16:54;15.73;;;9.90;;
16127;SDS011;8168;49.036;7.690;2023-03-03T11:22:34;18.30;;;9.57;;
16127;SDS011;8168;49.036;7.690;2023-03-03T11:28:10;27.53;;;17.80;;
16127;SDS011;8168;49.036;7.690;2023-03-03T11:34:06;20.50;;;11.00;;
16127;SDS011;8168;49.036;7.690;2023-03-03T11:37:07;22.90;;;11.37;;
16127;SDS011;8168;49.036;7.690;2023-03-03T11:39:41;17.33;;;10.57;;
16127;SDS011;8168;49.036;7.690;2023-03-03T11:44:55;15.90;;;10.93;;
16127;SDS011;8168;49.036;7.690;2023-03-03T11:47:38;15.13;;;9.53;;
16127;SDS011;8168;49.036;7.690;2023-03-03T11:50:21;17.67;;;9.87;;
16127;SDS011;8168;49.036;7.690;2023-03-03T11:55:59;19.57;;;10.40;;
16127;SDS011;8168;49.036;7.690;2023-03-03T11:58:49;15.93;;;10.67;;
16127;SDS011;8168;49.036;7.690;2023-03-03T12:01:32;15.43;;;8.60;;
16127;SDS011;8168;49.036;7.690;2023-03-03T12:04:15;19.80;;;11.40;;
16127;SDS011;8168;49.036;7.690;2023-03-03T12:29:08;19.40;;;9.73;;
16127;SDS011;8168;49.036;7.690;2023-03-03T12:34:32;16.13;;;9.50;;
16127;SDS011;8168;49.036;7.690;2023-03-03T12:37:34;17.13;;;10.00;;
16127;SDS011;8168;49.036;7.690;2023-03-03T12:40:18;15.67;;;10.57;;
16127;SDS011;8168;49.036;7.690;2023-03-03T12:48:49;17.60;;;10.47;;
16127;SDS011;8168;49.036;7.690;2023-03-03T12:52:08;17.30;;;10.37;;
16127;SDS011;8168;49.036;7.690;2023-03-03T12:57:11;18.97;;;11.67;;
16127;SDS011;8168;49.036;7.690;2023-03-03T13:06:32;17.23;;;10.97;;
16127;SDS011;8168;49.036;7.690;2023-03-03T13:12:27;16.30;;;9.73;;
16127;SDS011;8168;49.036;7.690;2023-03-03T13:15:06;15.93;;;10.20;;
16127;SDS011;8168;49.036;7.690;2023-03-03T13:20:29;20.53;;;11.63;;
16127;SDS011;8168;49.036;7.690;2023-03-03T13:26:02;17.07;;;8.90;;
16127;SDS011;8168;49.036;7.690;2023-03-03T13:31:21;15.60;;;9.80;;
16127;SDS011;8168;49.036;7.690;2023-03-03T13:33:57;19.50;;;10.07;;
16127;SDS011;8168;49.036;7.690;2023-03-03T13:36:40;16.10;;;9.03;;
16127;SDS011;8168;49.036;7.690;2023-03-03T13:42:00;14.67;;;9.60;;
16127;SDS011;8168;49.036;7.690;2023-03-03T13:44:37;14.77;;;9.17;;
16127;SDS011;8168;49.036;7.690;2023-03-03T13:47:22;16.60;;;9.50;;
16127;SDS011;8168;49.036;7.690;2023-03-03T13:55:48;18.37;;;9.37;;
16127;SDS011;8168;49.036;7.690;2023-03-03T14:01:59;15.80;;;9.37;;
16127;SDS011;8168;49.036;7.690;2023-03-03T14:04:13;18.07;;;9.73;;
16127;SDS011;8168;49.036;7.690;2023-03-03T14:06:57;14.20;;;8.67;;
16127;SDS011;8168;49.036;7.690;2023-03-03T14:12:41;15.77;;;10.17;;
16127;SDS011;8168;49.036;7.690;2023-03-03T14:15:21;15.03;;;8.77;;
16127;SDS011;8168;49.036;7.690;2023-03-03T14:21:08;16.03;;;9.23;;
16127;SDS011;8168;49.036;7.690;2023-03-03T14:23:49;14.27;;;8.80;;
16127;SDS011;8168;49.036;7.690;2023-03-03T14:26:20;16.33;;;8.97;;
16127;SDS011;8168;49.036;7.690;2023-03-03T14:29:03;17.83;;;9.87;;
16127;SDS011;8168;49.036;7.690;2023-03-03T14:31:48;17.20;;;9.60;;
16127;SDS011;8168;49.036;7.690;2023-03-03T14:36:57;16.67;;;9.30;;
16127;SDS011;8168;49.036;7.690;2023-03-03T14:39:49;13.93;;;8.87;;
16127;SDS011;8168;49.036;7.690;2023-03-03T14:42:36;15.50;;;9.63;;
16127;SDS011;8168;49.036;7.690;2023-03-03T14:45:26;16.23;;;9.00;;
16127;SDS011;8168;49.036;7.690;2023-03-03T14:48:10;15.13;;;8.93;;
16127;SDS011;8168;49.036;7.690;2023-03-03T14:50:57;16.10;;;9.33;;
16127;SDS011;8168;49.036;7.690;2023-03-03T14:53:34;15.17;;;9.57;;
16127;SDS011;8168;49.036;7.690;2023-03-03T14:56:51;16.93;;;9.93;;
16127;SDS011;8168;49.036;7.690;2023-03-03T14:59:24;13.73;;;8.97;;
16127;SDS011;8168;49.036;7.690;2023-03-03T15:01:56;17.43;;;9.40;;
16127;SDS011;8168;49.036;7.690;2023-03-03T15:04:46;15.90;;;10.00;;
16127;SDS011;8168;49.036;7.690;2023-03-03T15:09:56;18.47;;;10.20;;
16127;SDS011;8168;49.036;7.690;2023-03-03T15:12:36;17.80;;;9.27;;
16127;SDS011;8168;49.036;7.690;2023-03-03T15:15:17;16.57;;;9.83;;
16127;SDS011;8168;49.036;7.690;2023-03-03T15:23:12;17.73;;;10.87;;
16127;SDS011;8168;49.036;7.690;2023-03-03T15:25:55;17.03;;;9.50;;
16127;SDS011;8168;49.036;7.690;2023-03-03T15:34:25;18.80;;;11.07;;
16127;SDS011;8168;49.036;7.690;2023-03-03T15:48:25;18.90;;;11.00;;
16127;SDS011;8168;49.036;7.690;2023-03-03T15:54:19;23.20;;;12.60;;
16127;SDS011;8168;49.036;7.690;2023-03-03T15:56:56;20.30;;;12.27;;
16127;SDS011;8168;49.036;7.690;2023-03-03T16:02:18;20.80;;;10.63;;
16127;SDS011;8168;49.036;7.690;2023-03-03T16:04:55;19.40;;;11.73;;
16127;SDS011;8168;49.036;7.690;2023-03-03T16:26:28;20.70;;;12.23;;
16127;SDS011;8168;49.036;7.690;2023-03-03T16:29:45;27.13;;;11.90;;
16127;SDS011;8168;49.036;7.690;2023-03-03T16:32:31;23.50;;;14.30;;
16127;SDS011;8168;49.036;7.690;2023-03-03T16:35:16;22.67;;;13.27;;
16127;SDS011;8168;49.036;7.690;2023-03-03T16:40:35;22.20;;;12.60;;
16127;SDS011;8168;49.036;7.690;2023-03-03T16:57:09;22.90;;;12.87;;
16127;SDS011;8168;49.036;7.690;2023-03-03T17:00:22;23.63;;;13.40;;
16127;SDS011;8168;49.036;7.690;2023-03-03T17:03:08;26.00;;;12.37;;
16127;SDS011;8168;49.036;7.690;2023-03-03T17:15:04;16.43;;;9.80;;
16127;SDS011;8168;49.036;7.690;2023-03-03T17:20:57;18.47;;;9.67;;
16127;SDS011;8168;49.036;7.690;2023-03-03T17:23:34;16.50;;;9.83;;
16127;SDS011;8168;49.036;7.690;2023-03-03T17:45:44;15.30;;;8.80;;
16127;SDS011;8168;49.036;7.690;2023-03-03T17:51:11;14.07;;;8.07;;
16127;SDS011;8168;49.036;7.690;2023-03-03T17:56:38;19.10;;;8.83;;
16127;SDS011;8168;49.036;7.690;2023-03-03T18:05:12;13.97;;;7.93;;
16127;SDS011;8168;49.036;7.690;2023-03-03T18:13:30;13.77;;;7.67;;
16127;SDS011;8168;49.036;7.690;2023-03-03T18:27:12;12.67;;;7.37;;
16127;SDS011;8168;49.036;7.690;2023-03-03T18:43:54;16.63;;;8.27;;
16127;SDS011;8168;49.036;7.690;2023-03-03T18:49:08;13.50;;;7.80;;
16127;SDS011;8168;49.036;7.690;2023-03-03T19:04:42;14.57;;;9.40;;
16127;SDS011;8168;49.036;7.690;2023-03-03T19:12:52;11.10;;;7.83;;
16127;SDS011;8168;49.036;7.690;2023-03-03T19:18:01;15.83;;;8.90;;
16127;SDS011;8168;49.036;7.690;2023-03-03T19:20:42;15.57;;;8.87;;
16127;SDS011;8168;49.036;7.690;2023-03-03T19:23:17;15.23;;;8.57;;
16127;SDS011;8168;49.036;7.690;2023-03-03T19:26:17;18.63;;;9.80;;
16127;SDS011;8168;49.036;7.690;2023-03-03T19:28:58;13.57;;;7.70;;
16127;SDS011;8168;49.036;7.690;2023-03-03T19:40:10;14.80;;;8.23;;
16127;SDS011;8168;49.036;7.690;2023-03-03T19:43:14;18.20;;;8.90;;
16127;SDS011;8168;49.036;7.690;2023-03-03T19:48:35;12.80;;;7.23;;
16127;SDS011;8168;49.036;7.690;2023-03-03T19:51:29;21.77;;;11.17;;
16127;SDS011;8168;49.036;7.690;2023-03-03T19:56:58;23.30;;;12.40;;
16127;SDS011;8168;49.036;7.690;2023-03-03T20:10:53;14.43;;;8.97;;
16127;SDS011;8168;49.036;7.690;2023-03-03T20:16:27;13.63;;;8.20;;
16127;SDS011;8168;49.036;7.690;2023-03-03T20:24:34;17.23;;;8.97;;
16127;SDS011;8168;49.036;7.690;2023-03-03T20:35:26;22.00;;;11.10;;
16127;SDS011;8168;49.036;7.690;2023-03-03T20:40:39;17.37;;;8.90;;
16127;SDS011;8168;49.036;7.690;2023-03-03T20:43:38;18.47;;;9.67;;
16127;SDS011;8168;49.036;7.690;2023-03-03T20:46:39;15.37;;;8.63;;
16127;SDS011;8168;49.036;7.690;2023-03-03T20:55:10;19.67;;;8.47;;
16127;SDS011;8168;49.036;7.690;2023-03-03T21:05:57;16.77;;;8.57;;
16127;SDS011;8168;49.036;7.690;2023-03-03T21:14:12;17.60;;;8.70;;
16127;SDS011;8168;49.036;7.690;2023-03-03T21:16:48;14.30;;;7.83;;
16127;SDS011;8168;49.036;7.690;2023-03-03T21:19:30;16.17;;;8.33;;
16127;SDS011;8168;49.036;7.690;2023-03-03T21:22:03;14.67;;;8.60;;
16127;SDS011;8168;49.036;7.690;2023-03-03T21:24:53;15.57;;;8.80;;
16127;SDS011;8168;49.036;7.690;2023-03-03T21:27:31;13.17;;;7.97;;
16127;SDS011;8168;49.036;7.690;2023-03-03T21:32:44;13.43;;;7.53;;
16127;SDS011;8168;49.036;7.690;2023-03-03T21:35:17;15.10;;;7.63;;
16127;SDS011;8168;49.036;7.690;2023-03-03T21:37:56;14.80;;;7.73;;
16127;SDS011;8168;49.036;7.690;2023-03-03T21:40:27;21.00;;;8.17;;
16127;SDS011;8168;49.036;7.690;2023-03-03T21:42:59;12.50;;;7.37;;
16127;SDS011;8168;49.036;7.690;2023-03-03T21:45:29;17.07;;;7.93;;
16127;SDS011;8168;49.036;7.690;2023-03-03T21:48:02;12.40;;;6.73;;
16127;SDS011;8168;49.036;7.690;2023-03-03T21:50:33;13.43;;;7.83;;
16127;SDS011;8168;49.036;7.690;2023-03-03T21:53:05;12.33;;;7.30;;
16127;SDS011;8168;49.036;7.690;2023-03-03T21:55:35;13.10;;;7.23;;
16127;SDS011;8168;49.036;7.690;2023-03-03T21:58:06;14.20;;;7.97;;
16127;SDS011;8168;49.036;7.690;2023-03-03T22:00:36;14.30;;;7.97;;
16127;SDS011;8168;49.036;7.690;2023-03-03T22:03:08;15.20;;;7.07;;
16127;SDS011;8168;49.036;7.690;2023-03-03T22:05:40;16.53;;;8.20;;
16127;SDS011;8168;49.036;7.690;2023-03-03T22:08:11;14.30;;;7.57;;
16127;SDS011;8168;49.036;7.690;2023-03-03T22:10:41;14.73;;;8.07;;
16127;SDS011;8168;49.036;7.690;2023-03-03T22:13:12;14.20;;;7.03;;
16127;SDS011;8168;49.036;7.690;2023-03-03T22:15:43;14.90;;;7.40;;
16127;SDS011;8168;49.036;7.690;2023-03-03T22:18:15;17.20;;;8.57;;
16127;SDS011;8168;49.036;7.690;2023-03-03T22:20:47;12.53;;;7.03;;
16127;SDS011;8168;49.036;7.690;2023-03-03T22:23:19;12.27;;;8.97;;
16127;SDS011;8168;49.036;7.690;2023-03-03T22:25:50;14.63;;;7.87;;
16127;SDS011;8168;49.036;7.690;2023-03-03T22:28:20;13.17;;;7.80;;
16127;SDS011;8168;49.036;7.690;2023-03-03T22:30:51;17.50;;;8.63;;